createdAt,value
2019-02-23T00:00:12.732Z,94.70
2019-02-23T00:02:41.751Z,95.00
2019-02-23T00:05:10.606Z,95.00
2019-02-23T00:07:39.435Z,95.20
2019-02-23T00:10:08.785Z,95.00
2019-02-23T00:12:37.604Z,95.00
2019-02-23T00:15:07.044Z,95.40
2019-02-23T00:17:35.845Z,95.40
2019-02-23T00:20:07.031Z,95.40
2019-02-23T00:22:35.798Z,95.50
2019-02-23T00:25:04.947Z,95.60
2019-02-23T00:27:33.873Z,95.70
2019-02-23T00:30:02.937Z,95.70
2019-02-23T00:32:33.026Z,96.00
2019-02-23T00:35:01.786Z,96.00
2019-02-23T00:37:30.520Z,96.00
2019-02-23T00:39:59.210Z,95.90
2019-02-23T00:42:29.613Z,95.90
2019-02-23T00:44:58.353Z,96.00
2019-02-23T00:47:27.259Z,95.80
2019-02-23T00:49:56.031Z,96.00
2019-02-23T00:52:26.407Z,95.80
2019-02-23T00:54:55.158Z,95.50
2019-02-23T00:57:24.098Z,95.50
2019-02-23T00:59:52.861Z,95.30
2019-02-23T01:02:21.582Z,95.10
2019-02-23T01:04:50.354Z,95.10
2019-02-23T01:07:19.160Z,95.10
2019-02-23T01:09:50.030Z,95.20
2019-02-23T01:12:18.845Z,95.20
2019-02-23T01:14:48.904Z,95.20
2019-02-23T01:17:17.947Z,95.10
2019-02-23T01:19:48.051Z,94.80
2019-02-23T01:22:17.203Z,94.50
2019-02-23T01:24:46.411Z,94.60
2019-02-23T01:27:15.162Z,94.20
2019-02-23T01:29:43.866Z,94.10
2019-02-23T01:32:12.622Z,94.30
2019-02-23T01:34:41.272Z,94.10
2019-02-23T01:37:10.142Z,94.00
2019-02-23T01:39:39.004Z,94.10
2019-02-23T01:42:08.542Z,94.00
2019-02-23T01:44:38.521Z,94.00
2019-02-23T01:47:07.340Z,94.00
2019-02-23T01:49:36.137Z,94.00
2019-02-23T01:52:05.230Z,94.00
2019-02-23T01:54:34.081Z,93.80
2019-02-23T01:57:02.901Z,93.60
2019-02-23T01:59:31.658Z,93.40
2019-02-23T02:02:00.447Z,93.40
2019-02-23T02:04:29.206Z,93.30
2019-02-23T02:06:57.961Z,93.70
2019-02-23T02:09:26.824Z,93.50
2019-02-23T02:11:55.806Z,93.40
2019-02-23T02:14:24.876Z,93.50
2019-02-23T02:16:53.663Z,93.50
2019-02-23T02:19:22.413Z,93.40
2019-02-23T02:21:51.132Z,93.40
2019-02-23T02:24:19.873Z,93.30
2019-02-23T02:26:48.646Z,93.50
2019-02-23T02:29:17.450Z,93.50
2019-02-23T02:31:46.348Z,93.40
2019-02-23T02:34:15.937Z,93.30
2019-02-23T02:36:44.974Z,93.10
2019-02-23T02:39:14.267Z,92.60
2019-02-23T02:41:42.968Z,92.80
2019-02-23T02:44:11.692Z,92.90
2019-02-23T02:46:40.493Z,92.90
2019-02-23T02:49:09.520Z,93.00
2019-02-23T02:51:38.259Z,92.80
2019-02-23T02:54:06.974Z,93.00
2019-02-23T02:56:35.786Z,93.00
2019-02-23T02:59:04.486Z,93.10
2019-02-23T03:01:33.232Z,93.10
2019-02-23T03:04:01.916Z,93.10
2019-02-23T03:06:30.758Z,92.90
2019-02-23T03:08:59.441Z,93.20
2019-02-23T03:11:28.125Z,93.10
2019-02-23T03:13:56.864Z,93.00
2019-02-23T03:16:25.659Z,93.10
2019-02-23T03:18:54.439Z,93.20
2019-02-23T03:21:23.266Z,93.30
2019-02-23T03:23:52.060Z,93.30
2019-02-23T03:26:20.783Z,93.10
2019-02-23T03:28:49.527Z,92.90
2019-02-23T03:31:18.417Z,92.90
2019-02-23T03:33:47.184Z,92.90
2019-02-23T03:36:15.957Z,93.20
2019-02-23T03:38:44.778Z,93.20
2019-02-23T03:41:13.565Z,93.50
2019-02-23T03:43:42.313Z,93.60
2019-02-23T03:46:11.047Z,93.60
2019-02-23T03:48:39.818Z,93.50
2019-02-23T03:51:08.643Z,93.50
2019-02-23T03:53:37.387Z,93.20
2019-02-23T03:56:06.240Z,92.90
2019-02-23T03:58:35.032Z,92.80
2019-02-23T04:01:03.738Z,92.70
2019-02-23T04:03:32.450Z,92.70
2019-02-23T04:06:01.207Z,92.00
2019-02-23T04:08:29.978Z,91.40
2019-02-23T04:10:58.750Z,91.10
2019-02-23T04:13:27.598Z,91.20
2019-02-23T04:15:56.319Z,91.20
2019-02-23T04:18:25.065Z,91.40
2019-02-23T04:21:01.757Z,91.70
2019-02-23T04:23:24.102Z,91.60
2019-02-23T04:25:52.832Z,91.20
2019-02-23T04:28:23.076Z,91.40
2019-02-23T04:30:51.849Z,91.60
2019-02-23T04:33:20.686Z,91.50
2019-02-23T04:35:49.436Z,91.50
2019-02-23T04:38:18.201Z,91.50
2019-02-23T04:40:46.945Z,91.70
2019-02-23T04:43:15.523Z,91.50
2019-02-23T04:45:44.205Z,91.60
2019-02-23T04:48:12.982Z,91.70
2019-02-23T04:50:41.561Z,91.80
2019-02-23T04:53:10.276Z,92.10
2019-02-23T04:55:39.003Z,92.30
2019-02-23T04:58:07.712Z,92.50
2019-02-23T05:00:36.486Z,92.50
2019-02-23T05:03:05.288Z,92.50
2019-02-23T05:05:33.922Z,92.50
2019-02-23T05:08:02.737Z,92.60
2019-02-23T05:10:31.480Z,92.60
2019-02-23T05:13:00.313Z,92.70
2019-02-23T05:15:29.093Z,92.80
2019-02-23T05:17:57.915Z,92.80
2019-02-23T05:20:26.655Z,92.80
2019-02-23T05:22:55.319Z,92.70
2019-02-23T05:25:24.104Z,92.40
2019-02-23T05:27:52.900Z,92.20
2019-02-23T05:30:21.746Z,91.60
2019-02-23T05:32:50.586Z,91.40
2019-02-23T05:35:19.538Z,91.00
2019-02-23T05:37:48.246Z,91.10
2019-02-23T05:40:17.035Z,91.00
2019-02-23T05:42:45.778Z,90.50
2019-02-23T05:45:14.591Z,90.40
2019-02-23T05:47:43.305Z,90.50
2019-02-23T05:50:12.246Z,90.70
2019-02-23T05:52:41.032Z,90.60
2019-02-23T05:55:09.824Z,90.60
2019-02-23T05:57:38.587Z,90.80
2019-02-23T06:00:10.217Z,90.80
2019-02-23T06:02:38.943Z,90.60
2019-02-23T06:05:08.101Z,90.40
2019-02-23T06:07:36.932Z,90.50
2019-02-23T06:10:08.631Z,90.30
2019-02-23T06:12:37.347Z,90.30
2019-02-23T06:15:09.267Z,90.50
2019-02-23T06:17:38.018Z,90.60
2019-02-23T06:20:08.451Z,90.60
2019-02-23T06:22:37.177Z,90.20
2019-02-23T06:25:07.838Z,90.20
2019-02-23T06:27:36.715Z,90.30
2019-02-23T06:30:09.109Z,90.70
2019-02-23T06:32:37.961Z,90.80
2019-02-23T06:35:08.988Z,91.00
2019-02-23T06:37:37.768Z,91.20
2019-02-23T06:40:09.194Z,91.40
2019-02-23T06:42:37.982Z,91.70
2019-02-23T06:45:09.749Z,91.80
2019-02-23T06:47:38.502Z,91.60
2019-02-23T06:50:08.397Z,91.60
2019-02-23T06:52:37.123Z,91.20
2019-02-23T06:55:07.191Z,90.90
2019-02-23T06:57:36.070Z,90.80
2019-02-23T07:00:07.598Z,90.40
2019-02-23T07:02:36.364Z,90.30
2019-02-23T07:05:05.475Z,89.60
2019-02-23T07:07:34.240Z,89.10
2019-02-23T07:10:03.262Z,86.40
2019-02-23T07:12:32.088Z,86.60
2019-02-23T07:15:00.764Z,84.90
2019-02-23T07:17:29.447Z,84.40
2019-02-23T07:19:58.222Z,83.00
2019-02-23T07:22:26.934Z,81.70
2019-02-23T07:24:55.759Z,80.30
2019-02-23T07:27:24.711Z,80.60
2019-02-23T07:29:55.521Z,79.60
2019-02-23T07:32:26.811Z,79.30
2019-02-23T07:34:58.567Z,79.40
2019-02-23T07:37:27.466Z,75.70
2019-02-23T07:39:56.346Z,73.10
2019-02-23T07:42:25.182Z,69.70
2019-02-23T07:45:01.763Z,67.10
2019-02-23T07:50:18.980Z,67.00
2019-02-23T07:52:47.797Z,67.40
2019-02-23T07:55:16.790Z,63.90
2019-02-23T07:57:45.731Z,64.50
2019-02-23T08:00:15.238Z,60.90
2019-02-23T08:02:43.955Z,60.90
2019-02-23T08:05:12.793Z,61.00
2019-02-23T08:07:42.961Z,59.80
2019-02-23T08:10:13.023Z,59.90
2019-02-23T08:12:42.478Z,57.20
2019-02-23T08:15:12.300Z,56.30
2019-02-23T08:17:41.789Z,56.50
2019-02-23T08:20:14.686Z,54.70
2019-02-23T08:22:43.520Z,51.90
2019-02-23T08:25:13.756Z,49.20
2019-02-23T08:27:42.629Z,45.30
2019-02-23T08:30:14.751Z,41.90
2019-02-23T08:32:43.985Z,37.60
2019-02-23T08:35:12.946Z,32.90
2019-02-23T08:37:41.741Z,34.40
2019-02-23T08:40:15.132Z,34.30
2019-02-23T08:42:45.123Z,32.80
2019-02-23T08:45:13.965Z,33.10
2019-02-23T08:47:42.806Z,34.30
2019-02-23T08:50:14.691Z,35.80
2019-02-23T08:52:49.288Z,35.40
2019-02-23T08:55:14.064Z,37.90
2019-02-23T08:57:43.262Z,30.00
2019-02-23T09:00:15.316Z,29.40
2019-02-23T09:02:44.136Z,28.70
2019-02-23T09:05:13.618Z,28.90
2019-02-23T09:07:42.442Z,28.80
2019-02-23T09:10:13.248Z,26.60
2019-02-23T09:12:42.290Z,24.00
2019-02-23T09:15:12.164Z,25.00
2019-02-23T09:17:40.957Z,25.20
2019-02-23T09:20:11.502Z,24.30
2019-02-23T09:22:40.457Z,21.70
2019-02-23T09:25:11.051Z,19.50
2019-02-23T09:27:39.947Z,16.50
2019-02-23T09:30:10.988Z,12.60
2019-02-23T09:32:39.805Z,13.90
2019-02-23T09:35:08.750Z,14.20
2019-02-23T09:37:37.603Z,13.90
2019-02-23T09:40:09.309Z,16.30
2019-02-23T09:42:38.346Z,17.10
2019-02-23T09:45:10.181Z,18.90
2019-02-23T09:47:39.073Z,19.10
2019-02-23T09:50:08.218Z,18.00
2019-02-23T09:52:36.976Z,18.00
2019-02-23T09:55:06.349Z,16.80
2019-02-23T09:57:35.171Z,16.90
2019-02-23T10:00:06.116Z,17.10
2019-02-23T10:02:34.887Z,17.00
2019-02-23T10:05:03.915Z,17.10
2019-02-23T10:07:32.670Z,18.00
2019-02-23T10:10:01.546Z,14.70
2019-02-23T10:12:30.433Z,15.40
2019-02-23T10:14:59.280Z,14.80
2019-02-23T10:17:28.270Z,14.20
2019-02-23T10:19:57.062Z,14.70
2019-02-23T10:22:25.840Z,14.90
2019-02-23T10:24:55.724Z,17.20
2019-02-23T10:27:24.543Z,17.90
2019-02-23T10:29:53.297Z,17.50
2019-02-23T10:32:22.149Z,18.20
2019-02-23T10:34:51.096Z,15.10
2019-02-23T10:37:21.231Z,14.10
2019-02-23T10:39:51.379Z,14.40
2019-02-23T10:42:20.205Z,12.70
2019-02-23T10:44:49.001Z,12.80
2019-02-23T10:47:19.744Z,14.70
2019-02-23T10:49:48.255Z,15.60
2019-02-23T10:52:17.303Z,16.30
2019-02-23T10:54:47.241Z,17.50
2019-02-23T10:57:16.151Z,18.20
2019-02-23T10:59:44.956Z,18.60
2019-02-23T11:02:14.405Z,17.90
2019-02-23T11:04:48.566Z,17.40
2019-02-23T11:07:17.393Z,18.10
2019-02-23T11:09:46.538Z,18.70
2019-02-23T11:12:15.712Z,19.00
2019-02-23T11:14:44.437Z,19.00
2019-02-23T11:17:13.318Z,19.50
2019-02-23T11:19:42.170Z,18.70
2019-02-23T11:22:12.120Z,19.00
2019-02-23T11:24:41.512Z,18.00
2019-02-23T11:27:10.746Z,17.40
2019-02-23T11:29:39.581Z,17.90
2019-02-23T11:32:08.379Z,18.00
2019-02-23T11:34:37.120Z,18.10
2019-02-23T11:37:07.423Z,18.70
2019-02-23T11:39:36.246Z,18.30
2019-02-23T11:42:05.347Z,18.30
2019-02-23T11:44:34.132Z,16.50
2019-02-23T11:47:04.627Z,17.70
2019-02-23T11:49:33.440Z,18.00
2019-02-23T11:52:02.266Z,17.30
2019-02-23T11:54:31.055Z,16.10
2019-02-23T11:56:59.789Z,16.90
2019-02-23T11:59:28.553Z,15.70
2019-02-23T12:02:01.084Z,18.00
2019-02-23T12:04:29.796Z,16.90
2019-02-23T12:07:00.168Z,16.80
2019-02-23T12:09:28.949Z,17.50
2019-02-23T12:11:59.189Z,16.30
2019-02-23T12:14:27.929Z,15.20
2019-02-23T12:16:56.896Z,15.70
2019-02-23T12:19:25.765Z,15.70
2019-02-23T12:21:54.565Z,15.60
2019-02-23T12:24:23.364Z,15.40
2019-02-23T12:26:52.204Z,14.10
2019-02-23T12:29:20.975Z,14.30
2019-02-23T12:31:49.902Z,12.10
2019-02-23T12:34:18.711Z,12.20
2019-02-23T12:36:47.495Z,12.80
2019-02-23T12:39:18.170Z,12.30
2019-02-23T12:41:49.985Z,12.30
2019-02-23T12:44:21.496Z,13.60
2019-02-23T12:46:53.024Z,12.80
2019-02-23T12:49:21.794Z,12.00
2019-02-23T12:51:53.150Z,11.50
2019-02-23T12:54:26.209Z,8.40
2019-02-23T13:00:24.245Z,9.10
2019-02-23T13:02:53.000Z,7.30
2019-02-23T13:05:21.779Z,6.70
2019-02-23T13:07:53.185Z,6.80
2019-02-23T13:10:24.651Z,6.20
2019-02-23T13:12:57.584Z,6.70
2019-02-23T13:15:29.328Z,6.70
2019-02-23T13:18:00.290Z,6.00
2019-02-23T13:20:31.279Z,5.50
2019-02-23T13:23:02.866Z,5.10
2019-02-23T13:25:34.438Z,6.00
2019-02-23T13:28:06.100Z,5.70
2019-02-23T13:30:37.840Z,6.40
2019-02-23T13:33:09.082Z,6.50
2019-02-23T13:35:41.050Z,6.50
2019-02-23T13:38:12.046Z,6.30
2019-02-23T13:40:43.639Z,6.20
2019-02-23T13:43:14.172Z,7.20
2019-02-23T13:45:45.749Z,7.40
2019-02-23T13:48:15.691Z,7.30
2019-02-23T13:50:47.330Z,6.70
2019-02-23T13:53:18.958Z,6.40
2019-02-23T13:55:48.969Z,7.80
2019-02-23T13:58:21.996Z,7.00
2019-02-23T14:00:53.688Z,7.10
2019-02-23T14:03:24.885Z,6.80
2019-02-23T14:05:56.470Z,5.30
2019-02-23T14:08:28.123Z,4.10
2019-02-23T14:10:59.766Z,3.30
2019-02-23T14:13:31.293Z,2.30
2019-02-23T14:16:01.205Z,3.00
2019-02-23T14:18:32.892Z,2.30
2019-02-23T14:21:03.988Z,2.00
2019-02-23T14:23:32.300Z,2.50
2019-02-23T14:26:02.723Z,2.70
2019-02-23T14:28:34.738Z,2.80
2019-02-23T14:31:05.487Z,3.10
2019-02-23T14:33:39.642Z,2.50
2019-02-23T14:36:09.654Z,2.10
2019-02-23T14:38:41.192Z,2.20
2019-02-23T14:41:13.107Z,2.40
2019-02-23T14:43:44.023Z,3.20
2019-02-23T14:46:15.886Z,4.60
2019-02-23T14:48:47.513Z,4.70
2019-02-23T14:51:19.110Z,5.20
2019-02-23T14:53:50.404Z,4.70
2019-02-23T14:56:20.555Z,5.00
2019-02-23T14:58:52.383Z,4.90
2019-02-23T15:01:22.461Z,4.80
2019-02-23T15:03:53.356Z,5.20
2019-02-23T15:06:24.445Z,6.20
2019-02-23T15:08:56.540Z,6.10
2019-02-23T15:11:28.183Z,6.70
2019-02-23T15:13:58.204Z,6.10
2019-02-23T15:16:29.821Z,6.00
2019-02-23T15:19:01.399Z,5.20
2019-02-23T15:21:32.933Z,5.30
2019-02-23T15:24:04.517Z,5.00
2019-02-23T15:26:37.643Z,4.90
2019-02-23T15:29:07.947Z,5.00
2019-02-23T15:31:39.650Z,4.50
2019-02-23T15:34:11.470Z,4.90
2019-02-23T15:36:43.104Z,4.70
2019-02-23T15:39:14.130Z,5.30
2019-02-23T15:41:45.830Z,5.50
2019-02-23T15:44:17.530Z,5.90
2019-02-23T15:46:49.089Z,6.20
2019-02-23T15:49:19.178Z,4.90
2019-02-23T15:51:47.984Z,5.20
2019-02-23T15:54:16.915Z,5.30
2019-02-23T15:56:45.733Z,5.10
2019-02-23T15:59:14.516Z,4.00
2019-02-23T16:01:44.516Z,3.80
2019-02-23T16:04:13.308Z,3.90
2019-02-23T16:06:42.168Z,4.10
2019-02-23T16:09:11.106Z,4.80
2019-02-23T16:11:39.949Z,4.70
2019-02-23T16:14:08.782Z,4.90
2019-02-23T16:16:37.599Z,4.90
2019-02-23T16:19:06.567Z,5.20
2019-02-23T16:21:36.717Z,5.00
2019-02-23T16:24:06.825Z,4.90
2019-02-23T16:26:38.436Z,4.80
2019-02-23T16:29:07.216Z,4.80
2019-02-23T16:31:35.994Z,4.70
2019-02-23T16:34:07.383Z,5.10
2019-02-23T16:36:35.482Z,4.80
2019-02-23T16:39:08.476Z,4.70
2019-02-23T16:41:37.261Z,4.60
2019-02-23T16:44:06.061Z,4.50
2019-02-23T16:46:34.811Z,4.60
2019-02-23T16:49:03.828Z,4.60
2019-02-23T16:51:32.735Z,4.00
2019-02-23T16:54:01.607Z,3.90
2019-02-23T16:56:30.478Z,3.50
2019-02-23T16:58:59.303Z,3.70
2019-02-23T17:01:28.866Z,3.90
2019-02-23T17:03:57.633Z,4.10
2019-02-23T17:06:26.444Z,4.40
2019-02-23T17:08:55.220Z,4.30
2019-02-23T17:11:23.989Z,4.60
2019-02-23T17:13:52.796Z,4.60
2019-02-23T17:16:23.919Z,5.00
2019-02-23T17:18:52.787Z,5.20
2019-02-23T17:21:21.533Z,5.50
2019-02-23T17:23:50.316Z,5.70
2019-02-23T17:26:19.464Z,6.20
2019-02-23T17:28:48.343Z,6.70
2019-02-23T17:31:17.176Z,7.00
2019-02-23T17:33:45.986Z,7.40
2019-02-23T17:36:14.730Z,7.90
2019-02-23T17:38:44.838Z,8.50
2019-02-23T17:41:13.771Z,8.40
2019-02-23T17:43:42.510Z,8.40
2019-02-23T17:46:11.301Z,8.90
2019-02-23T17:48:40.316Z,9.20
2019-02-23T17:51:09.014Z,9.40
2019-02-23T17:53:37.750Z,9.60
2019-02-23T17:56:12.188Z,10.30
2019-02-23T17:58:37.028Z,10.80
2019-02-23T18:01:05.670Z,11.30
2019-02-23T18:03:34.517Z,11.40
2019-02-23T18:06:03.406Z,11.70
2019-02-23T18:08:32.122Z,11.90
2019-02-23T18:11:01.006Z,12.40
2019-02-23T18:13:29.838Z,12.80
2019-02-23T18:15:59.302Z,13.30
2019-02-23T18:18:29.322Z,14.00
2019-02-23T18:20:58.115Z,14.50
2019-02-23T18:23:26.954Z,15.60
2019-02-23T18:25:55.734Z,15.80
2019-02-23T18:28:24.646Z,16.60
2019-02-23T18:30:53.444Z,16.60
2019-02-23T18:33:22.307Z,17.20
2019-02-23T18:35:51.140Z,18.00
2019-02-23T18:38:19.997Z,18.70
2019-02-23T18:40:48.851Z,19.30
2019-02-23T18:43:17.591Z,20.00
2019-02-23T18:45:47.668Z,20.70
2019-02-23T18:48:16.678Z,21.30
2019-02-23T18:50:45.537Z,21.70
2019-02-23T18:53:14.378Z,21.90
2019-02-23T18:55:43.209Z,21.90
2019-02-23T18:58:12.018Z,22.30
2019-02-23T19:00:40.790Z,23.00
2019-02-23T19:03:09.620Z,23.30
2019-02-23T19:05:38.476Z,24.50
2019-02-23T19:08:07.283Z,24.50
2019-02-23T19:10:36.219Z,24.50
2019-02-23T19:13:05.010Z,24.60
2019-02-23T19:15:33.742Z,24.70
2019-02-23T19:18:02.636Z,25.50
2019-02-23T19:20:31.558Z,25.00
2019-02-23T19:23:00.463Z,25.30
2019-02-23T19:25:29.359Z,25.30
2019-02-23T19:27:58.095Z,26.20
2019-02-23T19:30:27.087Z,26.40
2019-02-23T19:32:55.958Z,26.50
2019-02-23T19:35:24.819Z,26.80
2019-02-23T19:37:53.564Z,26.10
2019-02-23T19:40:22.373Z,25.30
2019-02-23T19:42:50.961Z,25.10
2019-02-23T19:45:19.765Z,24.60
2019-02-23T19:47:49.144Z,23.60
2019-02-23T19:50:21.181Z,23.10
2019-02-23T19:52:50.108Z,23.50
2019-02-23T19:55:18.984Z,23.20
2019-02-23T19:57:47.802Z,24.10
2019-02-23T20:00:16.587Z,24.10
2019-02-23T20:02:45.366Z,24.10
2019-02-23T20:05:14.241Z,24.00
2019-02-23T20:07:43.046Z,23.90
2019-02-23T20:10:11.987Z,24.70
2019-02-23T20:12:40.690Z,25.40
2019-02-23T20:15:11.131Z,25.20
2019-02-23T20:17:39.954Z,25.30
2019-02-23T20:20:09.581Z,26.00
2019-02-23T20:22:38.358Z,25.30
2019-02-23T20:25:09.031Z,26.10
2019-02-23T20:27:37.768Z,25.50
2019-02-23T20:30:25.868Z,24.80
2019-02-23T20:32:54.588Z,24.70
2019-02-23T20:35:23.384Z,24.40
2019-02-23T20:37:52.348Z,24.00
2019-02-23T20:40:21.149Z,24.60
2019-02-23T20:42:49.970Z,25.10
2019-02-23T20:45:18.854Z,26.10
2019-02-23T20:47:47.771Z,26.00
2019-02-23T20:50:16.611Z,26.90
2019-02-23T20:52:45.464Z,27.60
2019-02-23T20:55:14.306Z,27.50
2019-02-23T20:57:43.066Z,26.70
2019-02-23T21:00:12.631Z,24.60
2019-02-23T21:02:41.998Z,24.60
2019-02-23T21:05:12.996Z,23.70
2019-02-23T21:07:42.835Z,24.20
2019-02-23T21:10:11.747Z,23.40
2019-02-23T21:12:40.640Z,23.40
2019-02-23T21:15:10.976Z,24.60
2019-02-23T21:17:39.816Z,26.00
2019-02-23T21:20:10.455Z,26.30
2019-02-23T21:22:39.997Z,27.40
2019-02-23T21:25:09.964Z,27.40
2019-02-23T21:27:38.746Z,28.10
2019-02-23T21:30:09.823Z,28.80
2019-02-23T21:32:38.677Z,28.60
2019-02-23T21:35:08.624Z,28.60
2019-02-23T21:37:37.453Z,28.80
2019-02-23T21:40:08.937Z,28.40
2019-02-23T21:42:37.821Z,27.30
2019-02-23T21:45:08.807Z,27.50
2019-02-23T21:47:37.661Z,28.30
2019-02-23T21:50:09.210Z,28.30
2019-02-23T21:52:37.995Z,24.90
2019-02-23T21:55:07.083Z,24.10
2019-02-23T21:57:35.847Z,24.70
2019-02-23T22:00:07.329Z,24.00
2019-02-23T22:02:36.085Z,24.60
2019-02-23T22:05:11.925Z,23.60
2019-02-23T22:07:36.500Z,23.90
2019-02-23T22:10:08.286Z,23.20
2019-02-23T22:12:37.269Z,22.00
2019-02-23T22:15:07.439Z,22.00
2019-02-23T22:17:36.345Z,21.00
2019-02-23T22:20:08.907Z,19.90
2019-02-23T22:22:37.913Z,20.40
2019-02-23T22:25:07.031Z,19.50
2019-02-23T22:27:35.888Z,18.30
2019-02-23T22:30:05.807Z,18.10
2019-02-23T22:32:37.544Z,17.70
2019-02-23T22:35:06.845Z,17.70
2019-02-23T22:37:35.748Z,18.30
2019-02-23T22:40:06.601Z,18.00
2019-02-23T22:42:35.468Z,18.00
2019-02-23T22:45:08.010Z,17.70
2019-02-23T22:47:36.845Z,17.50
2019-02-23T22:50:07.995Z,18.30
2019-02-23T22:52:36.794Z,18.50
2019-02-23T22:55:06.303Z,18.00
2019-02-23T22:57:40.638Z,17.60
2019-02-23T23:00:08.824Z,17.40
2019-02-23T23:02:37.696Z,17.40
2019-02-23T23:05:07.199Z,17.00
2019-02-23T23:07:36.338Z,17.10
2019-02-23T23:10:07.096Z,17.10
2019-02-23T23:12:36.126Z,17.50
2019-02-23T23:15:08.651Z,17.90
2019-02-23T23:17:37.367Z,17.40
2019-02-23T23:20:08.120Z,16.70
2019-02-23T23:22:36.877Z,15.80
2019-02-23T23:25:07.350Z,15.80
2019-02-23T23:27:36.038Z,16.00
2019-02-23T23:30:07.142Z,14.70
2019-02-23T23:32:35.942Z,14.70
2019-02-23T23:35:05.637Z,14.70
2019-02-23T23:37:34.586Z,14.70
2019-02-23T23:40:03.709Z,15.30
2019-02-23T23:42:33.221Z,15.00
2019-02-23T23:45:03.979Z,14.60
2019-02-23T23:47:32.811Z,15.50
2019-02-23T23:50:01.505Z,15.50
2019-02-23T23:52:32.734Z,15.90
2019-02-23T23:55:01.517Z,14.80
2019-02-23T23:57:30.236Z,14.70
